createdAt,value
2023-03-31T00:08:04.679Z,99199.06
2023-03-31T00:18:26.270Z,99188.97
2023-03-31T00:28:47.693Z,99177.78
2023-03-31T00:39:10.134Z,99171.06
2023-03-31T00:49:40.739Z,99154.22
2023-03-31T01:00:15.266Z,99143.91
2023-03-31T01:10:42.220Z,99133.78
2023-03-31T01:21:18.608Z,99125.78
2023-03-31T01:32:09.127Z,99115.41
2023-03-31T01:43:06.992Z,99100.34
2023-03-31T01:54:04.920Z,99087.63
2023-03-31T02:04:37.582Z,99075.69
2023-03-31T02:14:59.961Z,99052.91
2023-03-31T02:25:33.118Z,99046.91
2023-03-31T02:35:54.639Z,99019.44
2023-03-31T02:46:16.898Z,99016.91
2023-03-31T02:57:16.702Z,99009.31
2023-03-31T03:08:07.216Z,99008.88
2023-03-31T03:18:29.219Z,99015.03
2023-03-31T03:28:51.394Z,99021.94
2023-03-31T03:39:12.902Z,98998.91
2023-03-31T03:49:34.324Z,98991.19
2023-03-31T03:59:55.734Z,98977.50
2023-03-31T04:10:17.471Z,98977.38
2023-03-31T04:20:38.510Z,98980.78
2023-03-31T04:30:59.699Z,98965.72
2023-03-31T04:41:27.596Z,98959.88
2023-03-31T04:51:49.269Z,98938.09
2023-03-31T05:02:11.003Z,98938.72
2023-03-31T05:12:37.054Z,98930.84
2023-03-31T05:22:58.395Z,98915.19
2023-03-31T05:33:19.786Z,98898.72
2023-03-31T05:43:41.028Z,98869.56
2023-03-31T05:54:02.583Z,98858.22
2023-03-31T06:04:24.554Z,98850.50
2023-03-31T06:14:28.380Z,98842.81
2023-03-31T06:24:49.347Z,98859.97
2023-03-31T06:35:10.796Z,98837.94
2023-03-31T06:45:32.286Z,98830.75
2023-03-31T06:55:53.563Z,98824.50
2023-03-31T07:06:15.237Z,98790.66
2023-03-31T07:16:36.695Z,98793.19
2023-03-31T07:26:58.365Z,98788.13
2023-03-31T07:37:20.045Z,98784.16
2023-03-31T07:47:41.371Z,98785.47
2023-03-31T07:58:02.776Z,98775.53
2023-03-31T08:08:24.768Z,98757.50
2023-03-31T08:18:46.346Z,98745.47
2023-03-31T08:29:08.140Z,98735.03
2023-03-31T08:39:29.231Z,98724.81
2023-03-31T08:50:02.050Z,98721.50
2023-03-31T09:00:23.428Z,98709.22
2023-03-31T09:10:47.528Z,98708.81
2023-03-31T09:21:23.580Z,98684.28
2023-03-31T09:31:46.396Z,98662.72
2023-03-31T09:42:11.800Z,98655.03
2023-03-31T09:52:43.508Z,98651.19
2023-03-31T10:03:08.735Z,98651.38
2023-03-31T10:13:40.083Z,98640.81
2023-03-31T10:24:02.675Z,98620.69
2023-03-31T10:34:25.576Z,98616.84
2023-03-31T10:44:47.064Z,98594.47
2023-03-31T10:55:14.808Z,98579.94
2023-03-31T11:05:51.800Z,98570.41
2023-03-31T11:16:19.312Z,98571.84
2023-03-31T11:26:51.538Z,98556.84
2023-03-31T11:37:37.322Z,98535.53
2023-03-31T11:48:07.530Z,98534.81
2023-03-31T11:58:38.901Z,98517.13
2023-03-31T12:09:31.005Z,98495.88
2023-03-31T12:20:00.504Z,98489.50
2023-03-31T12:30:38.815Z,98473.38
2023-03-31T12:41:27.126Z,98463.00
2023-03-31T12:52:33.033Z,98466.59
2023-03-31T13:03:45.196Z,98440.81
2023-03-31T13:14:36.328Z,98439.25
2023-03-31T13:25:37.185Z,98423.25
2023-03-31T13:36:27.035Z,98422.84
2023-03-31T13:46:59.693Z,98412.66
2023-03-31T13:58:11.480Z,98411.25
2023-03-31T14:09:05.303Z,98409.75
2023-03-31T14:20:10.791Z,98407.53
2023-03-31T14:30:58.986Z,98415.06
2023-03-31T14:41:29.936Z,98414.03
2023-03-31T14:51:53.870Z,98410.59
2023-03-31T15:02:20.396Z,98410.06
2023-03-31T15:12:41.608Z,98419.00
2023-03-31T15:23:24.909Z,98423.28
2023-03-31T15:33:47.518Z,98419.19
2023-03-31T15:44:55.699Z,98430.00
2023-03-31T15:55:31.278Z,98415.16
2023-03-31T16:06:02.361Z,98410.25
2023-03-31T16:16:26.610Z,98410.13
2023-03-31T16:26:48.980Z,98407.72
2023-03-31T16:37:11.734Z,98408.69
2023-03-31T16:47:36.187Z,98417.97
2023-03-31T16:58:02.943Z,98412.75
2023-03-31T17:08:27.722Z,98412.53
2023-03-31T17:18:49.709Z,98423.25
2023-03-31T17:29:10.802Z,98413.78
2023-03-31T17:39:31.922Z,98418.25
2023-03-31T17:49:53.708Z,98412.84
2023-03-31T18:00:16.599Z,98417.72
2023-03-31T18:10:40.582Z,98419.16
2023-03-31T18:21:13.135Z,98416.34
2023-03-31T18:31:34.847Z,98411.00
2023-03-31T18:41:58.407Z,98409.28
2023-03-31T18:52:20.628Z,98406.38
2023-03-31T19:02:42.024Z,98403.66
2023-03-31T19:13:04.189Z,98402.66
2023-03-31T19:23:26.571Z,98404.88
2023-03-31T19:33:47.976Z,98390.47
2023-03-31T19:44:09.460Z,98382.78
2023-03-31T19:54:31.273Z,98383.28
2023-03-31T20:04:52.689Z,98376.53
2023-03-31T20:15:13.862Z,98386.34
2023-03-31T20:25:37.727Z,98380.28
2023-03-31T20:36:05.266Z,98377.75
2023-03-31T20:46:28.165Z,98387.38
2023-03-31T20:56:51.103Z,98400.59
2023-03-31T21:07:12.666Z,98406.09
2023-03-31T21:17:33.772Z,98404.38
2023-03-31T21:27:55.432Z,98393.13
2023-03-31T21:38:17.307Z,98378.53
2023-03-31T21:48:38.777Z,98386.53
2023-03-31T21:59:01.411Z,98380.69
2023-03-31T22:09:22.499Z,98384.53
2023-03-31T22:19:44.617Z,98371.66
2023-03-31T22:30:07.426Z,98381.50
2023-03-31T22:40:30.130Z,98385.16
2023-03-31T22:50:52.543Z,98396.38
2023-03-31T23:01:17.596Z,98380.44
2023-03-31T23:11:39.209Z,98389.66
2023-03-31T23:22:02.098Z,98389.25
2023-03-31T23:32:23.565Z,98393.00
2023-03-31T23:42:45.190Z,98383.63
2023-03-31T23:53:06.495Z,98386.75
